sensor_id;sensor_type;location;lat;lon;timestamp;P1;durP1;ratioP1;P2;durP2;ratioP2
42036;SDS011;30340;52.004;5.908;2023-08-21T00:00:44;2.65;;;1.30;;
42036;SDS011;30340;52.004;5.908;2023-08-21T00:03:09;2.75;;;1.17;;
42036;SDS011;30340;52.004;5.908;2023-08-21T00:05:35;4.93;;;1.35;;
42036;SDS011;30340;52.004;5.908;2023-08-21T00:08:00;2.63;;;0.90;;
42036;SDS011;30340;52.004;5.908;2023-08-21T00:10:26;3.58;;;1.15;;
42036;SDS011;30340;52.004;5.908;2023-08-21T00:12:52;2.50;;;1.02;;
42036;SDS011;30340;52.004;5.908;2023-08-21T00:15:17;2.15;;;1.10;;
42036;SDS011;30340;52.004;5.908;2023-08-21T00:17:43;3.63;;;1.30;;
42036;SDS011;30340;52.004;5.908;2023-08-21T00:20:09;3.47;;;1.10;;
42036;SDS011;30340;52.004;5.908;2023-08-21T00:22:35;2.40;;;1.20;;
42036;SDS011;30340;52.004;5.908;2023-08-21T00:25:01;2.58;;;1.10;;
42036;SDS011;30340;52.004;5.908;2023-08-21T00:27:27;3.42;;;1.27;;
42036;SDS011;30340;52.004;5.908;2023-08-21T00:29:52;3.50;;;1.38;;
42036;SDS011;30340;52.004;5.908;2023-08-21T00:32:18;1.88;;;0.90;;
42036;SDS011;30340;52.004;5.908;2023-08-21T00:34:43;1.80;;;1.00;;
42036;SDS011;30340;52.004;5.908;2023-08-21T00:37:09;3.97;;;1.15;;
42036;SDS011;30340;52.004;5.908;2023-08-21T00:39:36;2.20;;;1.00;;
42036;SDS011;30340;52.004;5.908;2023-08-21T00:42:01;2.92;;;1.23;;
42036;SDS011;30340;52.004;5.908;2023-08-21T00:44:27;1.88;;;1.10;;
42036;SDS011;30340;52.004;5.908;2023-08-21T00:46:52;3.25;;;1.10;;
42036;SDS011;30340;52.004;5.908;2023-08-21T00:49:19;3.70;;;1.20;;
42036;SDS011;30340;52.004;5.908;2023-08-21T00:51:45;3.08;;;1.10;;
42036;SDS011;30340;52.004;5.908;2023-08-21T00:54:12;3.10;;;1.15;;
42036;SDS011;30340;52.004;5.908;2023-08-21T00:56:37;2.80;;;1.00;;
42036;SDS011;30340;52.004;5.908;2023-08-21T00:59:03;2.25;;;0.98;;
42036;SDS011;30340;52.004;5.908;2023-08-21T01:01:29;3.08;;;1.10;;
42036;SDS011;30340;52.004;5.908;2023-08-21T01:03:55;2.92;;;1.13;;
42036;SDS011;30340;52.004;5.908;2023-08-21T01:06:21;3.63;;;1.67;;
42036;SDS011;30340;52.004;5.908;2023-08-21T01:08:52;1.65;;;1.10;;
42036;SDS011;30340;52.004;5.908;2023-08-21T01:11:35;3.72;;;1.00;;
42036;SDS011;30340;52.004;5.908;2023-08-21T01:14:10;2.40;;;0.95;;
42036;SDS011;30340;52.004;5.908;2023-08-21T01:16:38;2.22;;;1.17;;
42036;SDS011;30340;52.004;5.908;2023-08-21T01:19:07;1.83;;;1.02;;
42036;SDS011;30340;52.004;5.908;2023-08-21T01:21:39;3.25;;;1.20;;
42036;SDS011;30340;52.004;5.908;2023-08-21T01:24:05;3.08;;;1.10;;
42036;SDS011;30340;52.004;5.908;2023-08-21T01:26:31;2.22;;;1.10;;
42036;SDS011;30340;52.004;5.908;2023-08-21T01:28:56;3.40;;;1.20;;
42036;SDS011;30340;52.004;5.908;2023-08-21T01:31:26;3.10;;;1.10;;
42036;SDS011;30340;52.004;5.908;2023-08-21T01:33:57;2.08;;;0.90;;
42036;SDS011;30340;52.004;5.908;2023-08-21T01:36:25;2.88;;;0.90;;
42036;SDS011;30340;52.004;5.908;2023-08-21T01:38:51;2.97;;;1.02;;
42036;SDS011;30340;52.004;5.908;2023-08-21T01:41:17;2.55;;;1.25;;
42036;SDS011;30340;52.004;5.908;2023-08-21T01:43:43;1.83;;;0.90;;
42036;SDS011;30340;52.004;5.908;2023-08-21T01:46:09;2.72;;;1.13;;
42036;SDS011;30340;52.004;5.908;2023-08-21T01:48:35;2.85;;;1.13;;
42036;SDS011;30340;52.004;5.908;2023-08-21T01:51:01;2.40;;;1.00;;
42036;SDS011;30340;52.004;5.908;2023-08-21T01:53:27;2.65;;;1.05;;
42036;SDS011;30340;52.004;5.908;2023-08-21T01:55:53;2.75;;;1.10;;
42036;SDS011;30340;52.004;5.908;2023-08-21T01:58:18;3.38;;;1.10;;
42036;SDS011;30340;52.004;5.908;2023-08-21T02:00:47;3.45;;;1.13;;
42036;SDS011;30340;52.004;5.908;2023-08-21T02:03:12;3.40;;;1.10;;
42036;SDS011;30340;52.004;5.908;2023-08-21T02:05:38;2.63;;;1.20;;
42036;SDS011;30340;52.004;5.908;2023-08-21T02:08:05;1.80;;;1.02;;
42036;SDS011;30340;52.004;5.908;2023-08-21T02:10:31;2.03;;;1.10;;
42036;SDS011;30340;52.004;5.908;2023-08-21T02:12:57;2.35;;;1.08;;
42036;SDS011;30340;52.004;5.908;2023-08-21T02:15:23;3.65;;;1.10;;
42036;SDS011;30340;52.004;5.908;2023-08-21T02:17:48;2.92;;;1.50;;
42036;SDS011;30340;52.004;5.908;2023-08-21T02:20:14;2.45;;;1.02;;
42036;SDS011;30340;52.004;5.908;2023-08-21T02:22:39;3.50;;;1.13;;
42036;SDS011;30340;52.004;5.908;2023-08-21T02:25:05;2.58;;;1.10;;
42036;SDS011;30340;52.004;5.908;2023-08-21T02:27:31;2.88;;;1.27;;
42036;SDS011;30340;52.004;5.908;2023-08-21T02:29:56;2.92;;;1.10;;
42036;SDS011;30340;52.004;5.908;2023-08-21T02:32:22;2.10;;;1.00;;
42036;SDS011;30340;52.004;5.908;2023-08-21T02:34:47;2.30;;;1.00;;
42036;SDS011;30340;52.004;5.908;2023-08-21T02:37:13;2.00;;;1.00;;
42036;SDS011;30340;52.004;5.908;2023-08-21T02:39:39;3.65;;;1.27;;
42036;SDS011;30340;52.004;5.908;2023-08-21T02:42:04;2.90;;;1.23;;
42036;SDS011;30340;52.004;5.908;2023-08-21T02:44:30;2.78;;;1.30;;
42036;SDS011;30340;52.004;5.908;2023-08-21T02:46:55;3.25;;;1.00;;
42036;SDS011;30340;52.004;5.908;2023-08-21T02:49:21;2.65;;;1.20;;
42036;SDS011;30340;52.004;5.908;2023-08-21T02:51:47;2.95;;;1.00;;
42036;SDS011;30340;52.004;5.908;2023-08-21T02:54:12;3.20;;;1.20;;
42036;SDS011;30340;52.004;5.908;2023-08-21T02:56:38;2.63;;;1.15;;
42036;SDS011;30340;52.004;5.908;2023-08-21T02:59:03;1.75;;;1.00;;
42036;SDS011;30340;52.004;5.908;2023-08-21T03:01:29;3.00;;;1.02;;
42036;SDS011;30340;52.004;5.908;2023-08-21T03:03:54;3.20;;;1.33;;
42036;SDS011;30340;52.004;5.908;2023-08-21T03:06:20;2.58;;;1.10;;
42036;SDS011;30340;52.004;5.908;2023-08-21T03:08:46;3.38;;;1.20;;
42036;SDS011;30340;52.004;5.908;2023-08-21T03:11:11;1.88;;;0.80;;
42036;SDS011;30340;52.004;5.908;2023-08-21T03:13:37;3.38;;;1.00;;
42036;SDS011;30340;52.004;5.908;2023-08-21T03:16:03;2.72;;;1.08;;
42036;SDS011;30340;52.004;5.908;2023-08-21T03:18:30;2.33;;;1.08;;
42036;SDS011;30340;52.004;5.908;2023-08-21T03:20:56;2.05;;;0.90;;
42036;SDS011;30340;52.004;5.908;2023-08-21T03:23:22;2.42;;;1.00;;
42036;SDS011;30340;52.004;5.908;2023-08-21T03:25:48;5.25;;;1.17;;
42036;SDS011;30340;52.004;5.908;2023-08-21T03:28:17;2.28;;;1.10;;
42036;SDS011;30340;52.004;5.908;2023-08-21T03:30:42;1.77;;;1.05;;
42036;SDS011;30340;52.004;5.908;2023-08-21T03:33:08;2.53;;;1.20;;
42036;SDS011;30340;52.004;5.908;2023-08-21T03:35:33;2.95;;;1.00;;
42036;SDS011;30340;52.004;5.908;2023-08-21T03:37:59;1.85;;;0.90;;
42036;SDS011;30340;52.004;5.908;2023-08-21T03:40:24;1.85;;;1.00;;
42036;SDS011;30340;52.004;5.908;2023-08-21T03:42:50;2.60;;;1.05;;
42036;SDS011;30340;52.004;5.908;2023-08-21T03:45:15;1.67;;;1.00;;
42036;SDS011;30340;52.004;5.908;2023-08-21T03:47:41;4.10;;;1.17;;
42036;SDS011;30340;52.004;5.908;2023-08-21T03:50:07;2.00;;;1.10;;
42036;SDS011;30340;52.004;5.908;2023-08-21T03:52:33;4.05;;;1.13;;
42036;SDS011;30340;52.004;5.908;2023-08-21T03:54:58;4.32;;;1.00;;
42036;SDS011;30340;52.004;5.908;2023-08-21T03:57:24;4.03;;;1.30;;
42036;SDS011;30340;52.004;5.908;2023-08-21T03:59:49;3.08;;;1.10;;
42036;SDS011;30340;52.004;5.908;2023-08-21T04:02:15;3.03;;;1.40;;
42036;SDS011;30340;52.004;5.908;2023-08-21T04:04:40;2.35;;;0.98;;
42036;SDS011;30340;52.004;5.908;2023-08-21T04:07:06;3.72;;;1.23;;
42036;SDS011;30340;52.004;5.908;2023-08-21T04:09:31;3.53;;;1.20;;
42036;SDS011;30340;52.004;5.908;2023-08-21T04:11:57;3.25;;;1.00;;
42036;SDS011;30340;52.004;5.908;2023-08-21T04:14:22;2.35;;;1.02;;
42036;SDS011;30340;52.004;5.908;2023-08-21T04:16:48;2.70;;;0.90;;
42036;SDS011;30340;52.004;5.908;2023-08-21T04:19:14;3.13;;;1.23;;
42036;SDS011;30340;52.004;5.908;2023-08-21T04:21:39;2.63;;;0.95;;
42036;SDS011;30340;52.004;5.908;2023-08-21T04:24:05;2.70;;;1.23;;
42036;SDS011;30340;52.004;5.908;2023-08-21T04:26:30;2.20;;;1.10;;
42036;SDS011;30340;52.004;5.908;2023-08-21T04:28:56;2.15;;;1.00;;
42036;SDS011;30340;52.004;5.908;2023-08-21T04:31:22;3.38;;;1.08;;
42036;SDS011;30340;52.004;5.908;2023-08-21T04:33:47;2.75;;;1.10;;
42036;SDS011;30340;52.004;5.908;2023-08-21T04:36:16;2.60;;;1.00;;
42036;SDS011;30340;52.004;5.908;2023-08-21T04:38:42;3.08;;;1.00;;
42036;SDS011;30340;52.004;5.908;2023-08-21T04:41:09;3.33;;;1.15;;
42036;SDS011;30340;52.004;5.908;2023-08-21T04:43:35;2.42;;;1.15;;
42036;SDS011;30340;52.004;5.908;2023-08-21T04:46:00;5.13;;;1.20;;
42036;SDS011;30340;52.004;5.908;2023-08-21T04:48:26;2.78;;;1.02;;
42036;SDS011;30340;52.004;5.908;2023-08-21T04:50:52;3.58;;;1.00;;
42036;SDS011;30340;52.004;5.908;2023-08-21T04:53:17;2.75;;;1.08;;
42036;SDS011;30340;52.004;5.908;2023-08-21T04:55:43;3.83;;;1.20;;
42036;SDS011;30340;52.004;5.908;2023-08-21T04:58:09;3.70;;;1.13;;
42036;SDS011;30340;52.004;5.908;2023-08-21T05:00:35;3.58;;;1.42;;
42036;SDS011;30340;52.004;5.908;2023-08-21T05:03:00;2.80;;;1.10;;
42036;SDS011;30340;52.004;5.908;2023-08-21T05:05:26;2.75;;;1.25;;
42036;SDS011;30340;52.004;5.908;2023-08-21T05:07:52;3.97;;;1.20;;
42036;SDS011;30340;52.004;5.908;2023-08-21T05:10:18;2.63;;;1.00;;
42036;SDS011;30340;52.004;5.908;2023-08-21T05:12:44;3.75;;;1.30;;
42036;SDS011;30340;52.004;5.908;2023-08-21T05:15:10;3.47;;;1.13;;
42036;SDS011;30340;52.004;5.908;2023-08-21T05:17:36;2.20;;;0.98;;
42036;SDS011;30340;52.004;5.908;2023-08-21T05:20:02;3.42;;;1.10;;
42036;SDS011;30340;52.004;5.908;2023-08-21T05:22:28;2.92;;;1.20;;
42036;SDS011;30340;52.004;5.908;2023-08-21T05:24:54;4.20;;;1.20;;
42036;SDS011;30340;52.004;5.908;2023-08-21T05:27:19;2.85;;;1.20;;
42036;SDS011;30340;52.004;5.908;2023-08-21T05:29:45;3.35;;;1.20;;
42036;SDS011;30340;52.004;5.908;2023-08-21T05:32:11;2.92;;;1.02;;
42036;SDS011;30340;52.004;5.908;2023-08-21T05:34:37;3.15;;;1.20;;
42036;SDS011;30340;52.004;5.908;2023-08-21T05:37:02;2.78;;;1.02;;
42036;SDS011;30340;52.004;5.908;2023-08-21T05:39:28;4.38;;;0.95;;
42036;SDS011;30340;52.004;5.908;2023-08-21T05:41:54;2.67;;;1.00;;
42036;SDS011;30340;52.004;5.908;2023-08-21T05:44:19;2.90;;;0.95;;
42036;SDS011;30340;52.004;5.908;2023-08-21T05:46:45;2.42;;;1.00;;
42036;SDS011;30340;52.004;5.908;2023-08-21T05:49:11;3.03;;;1.02;;
42036;SDS011;30340;52.004;5.908;2023-08-21T05:51:36;2.72;;;1.10;;
42036;SDS011;30340;52.004;5.908;2023-08-21T05:54:02;3.10;;;1.17;;
42036;SDS011;30340;52.004;5.908;2023-08-21T05:56:28;3.33;;;1.23;;
42036;SDS011;30340;52.004;5.908;2023-08-21T05:58:53;3.22;;;1.17;;
42036;SDS011;30340;52.004;5.908;2023-08-21T06:01:19;3.20;;;1.40;;
42036;SDS011;30340;52.004;5.908;2023-08-21T06:03:44;2.28;;;1.27;;
42036;SDS011;30340;52.004;5.908;2023-08-21T06:06:10;2.85;;;1.35;;
42036;SDS011;30340;52.004;5.908;2023-08-21T06:08:36;4.53;;;1.50;;
42036;SDS011;30340;52.004;5.908;2023-08-21T06:11:01;3.53;;;1.67;;
42036;SDS011;30340;52.004;5.908;2023-08-21T06:13:27;5.50;;;1.90;;
42036;SDS011;30340;52.004;5.908;2023-08-21T06:15:53;3.38;;;1.55;;
42036;SDS011;30340;52.004;5.908;2023-08-21T06:18:19;3.65;;;1.40;;
42036;SDS011;30340;52.004;5.908;2023-08-21T06:20:44;2.97;;;1.48;;
42036;SDS011;30340;52.004;5.908;2023-08-21T06:23:10;3.72;;;1.48;;
42036;SDS011;30340;52.004;5.908;2023-08-21T06:25:36;3.88;;;1.63;;
42036;SDS011;30340;52.004;5.908;2023-08-21T06:28:02;3.08;;;1.20;;
42036;SDS011;30340;52.004;5.908;2023-08-21T06:30:28;2.92;;;1.10;;
42036;SDS011;30340;52.004;5.908;2023-08-21T06:32:54;4.45;;;1.45;;
42036;SDS011;30340;52.004;5.908;2023-08-21T06:35:20;2.95;;;1.05;;
42036;SDS011;30340;52.004;5.908;2023-08-21T06:37:46;3.38;;;1.15;;
42036;SDS011;30340;52.004;5.908;2023-08-21T06:40:12;2.78;;;1.10;;
42036;SDS011;30340;52.004;5.908;2023-08-21T06:42:37;3.33;;;1.23;;
42036;SDS011;30340;52.004;5.908;2023-08-21T06:45:06;3.03;;;1.00;;
42036;SDS011;30340;52.004;5.908;2023-08-21T06:47:32;2.92;;;1.10;;
42036;SDS011;30340;52.004;5.908;2023-08-21T06:49:58;2.30;;;1.10;;
42036;SDS011;30340;52.004;5.908;2023-08-21T06:52:25;2.88;;;1.23;;
42036;SDS011;30340;52.004;5.908;2023-08-21T06:54:51;2.50;;;1.00;;
42036;SDS011;30340;52.004;5.908;2023-08-21T06:57:17;4.40;;;1.23;;
42036;SDS011;30340;52.004;5.908;2023-08-21T06:59:42;3.92;;;1.05;;
42036;SDS011;30340;52.004;5.908;2023-08-21T07:02:08;4.70;;;1.30;;
42036;SDS011;30340;52.004;5.908;2023-08-21T07:04:33;2.88;;;1.23;;
42036;SDS011;30340;52.004;5.908;2023-08-21T07:06:59;5.38;;;1.42;;
42036;SDS011;30340;52.004;5.908;2023-08-21T07:09:25;3.33;;;1.10;;
42036;SDS011;30340;52.004;5.908;2023-08-21T07:11:50;4.28;;;1.35;;
42036;SDS011;30340;52.004;5.908;2023-08-21T07:14:16;3.20;;;1.15;;
42036;SDS011;30340;52.004;5.908;2023-08-21T07:16:42;3.08;;;1.10;;
42036;SDS011;30340;52.004;5.908;2023-08-21T07:19:08;3.97;;;1.40;;
42036;SDS011;30340;52.004;5.908;2023-08-21T07:21:34;3.22;;;1.13;;
42036;SDS011;30340;52.004;5.908;2023-08-21T07:24:04;4.82;;;1.00;;
42036;SDS011;30340;52.004;5.908;2023-08-21T07:26:30;2.42;;;0.98;;
42036;SDS011;30340;52.004;5.908;2023-08-21T07:28:56;3.13;;;1.10;;
42036;SDS011;30340;52.004;5.908;2023-08-21T07:31:22;2.70;;;0.95;;
42036;SDS011;30340;52.004;5.908;2023-08-21T07:33:48;2.83;;;1.00;;
42036;SDS011;30340;52.004;5.908;2023-08-21T07:36:13;4.00;;;1.10;;
42036;SDS011;30340;52.004;5.908;2023-08-21T07:38:42;3.03;;;0.98;;
42036;SDS011;30340;52.004;5.908;2023-08-21T07:41:09;2.95;;;1.17;;
42036;SDS011;30340;52.004;5.908;2023-08-21T07:43:36;3.85;;;1.25;;
42036;SDS011;30340;52.004;5.908;2023-08-21T07:46:07;2.30;;;0.88;;
42036;SDS011;30340;52.004;5.908;2023-08-21T07:48:34;3.85;;;0.90;;
42036;SDS011;30340;52.004;5.908;2023-08-21T07:51:00;2.88;;;1.10;;
42036;SDS011;30340;52.004;5.908;2023-08-21T07:53:26;2.55;;;0.82;;
42036;SDS011;30340;52.004;5.908;2023-08-21T07:55:52;3.25;;;1.05;;
42036;SDS011;30340;52.004;5.908;2023-08-21T07:58:18;4.32;;;1.05;;
42036;SDS011;30340;52.004;5.908;2023-08-21T08:00:43;3.75;;;1.25;;
42036;SDS011;30340;52.004;5.908;2023-08-21T08:03:09;2.60;;;0.88;;
42036;SDS011;30340;52.004;5.908;2023-08-21T08:05:36;3.17;;;0.95;;
42036;SDS011;30340;52.004;5.908;2023-08-21T08:08:01;3.13;;;1.00;;
42036;SDS011;30340;52.004;5.908;2023-08-21T08:10:27;3.13;;;0.98;;
42036;SDS011;30340;52.004;5.908;2023-08-21T08:12:53;3.15;;;1.00;;
42036;SDS011;30340;52.004;5.908;2023-08-21T08:15:19;5.05;;;1.20;;
42036;SDS011;30340;52.004;5.908;2023-08-21T08:17:45;4.18;;;1.23;;
42036;SDS011;30340;52.004;5.908;2023-08-21T08:20:11;3.10;;;1.20;;
42036;SDS011;30340;52.004;5.908;2023-08-21T08:22:37;3.58;;;1.00;;
42036;SDS011;30340;52.004;5.908;2023-08-21T08:25:03;5.15;;;1.10;;
42036;SDS011;30340;52.004;5.908;2023-08-21T08:27:31;3.50;;;1.00;;
42036;SDS011;30340;52.004;5.908;2023-08-21T08:29:56;2.22;;;0.88;;
42036;SDS011;30340;52.004;5.908;2023-08-21T08:32:22;4.05;;;1.15;;
42036;SDS011;30340;52.004;5.908;2023-08-21T08:34:48;2.53;;;1.30;;
42036;SDS011;30340;52.004;5.908;2023-08-21T08:37:13;3.92;;;1.27;;
42036;SDS011;30340;52.004;5.908;2023-08-21T08:39:39;3.08;;;1.00;;
42036;SDS011;30340;52.004;5.908;2023-08-21T08:42:05;2.30;;;0.90;;
42036;SDS011;30340;52.004;5.908;2023-08-21T08:44:31;4.13;;;0.93;;
42036;SDS011;30340;52.004;5.908;2023-08-21T08:47:01;1.90;;;0.98;;
42036;SDS011;30340;52.004;5.908;2023-08-21T08:49:27;2.17;;;0.85;;
42036;SDS011;30340;52.004;5.908;2023-08-21T08:51:53;3.20;;;1.20;;
42036;SDS011;30340;52.004;5.908;2023-08-21T08:54:22;4.60;;;1.00;;
42036;SDS011;30340;52.004;5.908;2023-08-21T08:56:50;3.72;;;1.33;;
42036;SDS011;30340;52.004;5.908;2023-08-21T08:59:16;3.28;;;1.05;;
42036;SDS011;30340;52.004;5.908;2023-08-21T09:01:42;5.13;;;1.30;;
42036;SDS011;30340;52.004;5.908;2023-08-21T09:04:08;4.53;;;1.20;;
42036;SDS011;30340;52.004;5.908;2023-08-21T09:06:34;3.70;;;1.10;;
42036;SDS011;30340;52.004;5.908;2023-08-21T09:09:00;2.92;;;1.20;;
42036;SDS011;30340;52.004;5.908;2023-08-21T09:11:26;2.78;;;0.95;;
42036;SDS011;30340;52.004;5.908;2023-08-21T09:13:52;3.80;;;1.02;;
42036;SDS011;30340;52.004;5.908;2023-08-21T09:16:19;3.10;;;1.20;;
42036;SDS011;30340;52.004;5.908;2023-08-21T09:18:53;2.00;;;0.98;;
42036;SDS011;30340;52.004;5.908;2023-08-21T09:21:20;4.03;;;1.10;;
42036;SDS011;30340;52.004;5.908;2023-08-21T09:23:46;2.85;;;1.05;;
42036;SDS011;30340;52.004;5.908;2023-08-21T09:26:19;2.83;;;0.80;;
42036;SDS011;30340;52.004;5.908;2023-08-21T09:28:45;2.05;;;1.00;;
42036;SDS011;30340;52.004;5.908;2023-08-21T09:31:11;2.63;;;1.10;;
42036;SDS011;30340;52.004;5.908;2023-08-21T09:33:37;2.72;;;0.90;;
42036;SDS011;30340;52.004;5.908;2023-08-21T09:36:03;1.92;;;0.90;;
42036;SDS011;30340;52.004;5.908;2023-08-21T09:38:35;3.45;;;1.00;;
42036;SDS011;30340;52.004;5.908;2023-08-21T09:41:03;2.78;;;1.13;;
42036;SDS011;30340;52.004;5.908;2023-08-21T09:43:28;2.47;;;0.90;;
42036;SDS011;30340;52.004;5.908;2023-08-21T09:45:54;2.42;;;1.00;;
42036;SDS011;30340;52.004;5.908;2023-08-21T09:48:26;2.75;;;1.05;;
42036;SDS011;30340;52.004;5.908;2023-08-21T09:50:52;3.33;;;0.90;;
42036;SDS011;30340;52.004;5.908;2023-08-21T09:53:19;3.30;;;1.10;;
42036;SDS011;30340;52.004;5.908;2023-08-21T09:55:47;6.82;;;1.30;;
42036;SDS011;30340;52.004;5.908;2023-08-21T09:58:14;3.55;;;1.10;;
42036;SDS011;30340;52.004;5.908;2023-08-21T10:00:41;3.80;;;1.17;;
42036;SDS011;30340;52.004;5.908;2023-08-21T10:03:08;3.85;;;1.27;;
42036;SDS011;30340;52.004;5.908;2023-08-21T10:05:35;3.15;;;1.20;;
42036;SDS011;30340;52.004;5.908;2023-08-21T10:08:03;2.72;;;0.98;;
42036;SDS011;30340;52.004;5.908;2023-08-21T10:10:34;2.25;;;0.80;;
42036;SDS011;30340;52.004;5.908;2023-08-21T10:13:01;4.53;;;1.10;;
42036;SDS011;30340;52.004;5.908;2023-08-21T10:15:28;3.05;;;0.90;;
42036;SDS011;30340;52.004;5.908;2023-08-21T10:17:56;4.00;;;1.23;;
42036;SDS011;30340;52.004;5.908;2023-08-21T10:20:22;3.75;;;1.00;;
42036;SDS011;30340;52.004;5.908;2023-08-21T10:22:51;2.72;;;1.13;;
42036;SDS011;30340;52.004;5.908;2023-08-21T10:25:23;2.08;;;0.93;;
42036;SDS011;30340;52.004;5.908;2023-08-21T10:27:58;3.25;;;1.17;;
42036;SDS011;30340;52.004;5.908;2023-08-21T10:30:28;3.90;;;1.20;;
42036;SDS011;30340;52.004;5.908;2023-08-21T10:32:55;4.07;;;1.35;;
42036;SDS011;30340;52.004;5.908;2023-08-21T10:35:28;2.50;;;1.15;;
42036;SDS011;30340;52.004;5.908;2023-08-21T10:38:14;2.92;;;1.40;;
42036;SDS011;30340;52.004;5.908;2023-08-21T10:46:04;4.00;;;1.40;;
42036;SDS011;30340;52.004;5.908;2023-08-21T10:48:30;4.57;;;1.30;;
42036;SDS011;30340;52.004;5.908;2023-08-21T10:50:56;4.15;;;1.30;;
42036;SDS011;30340;52.004;5.908;2023-08-21T10:53:26;5.68;;;1.55;;
42036;SDS011;30340;52.004;5.908;2023-08-21T10:55:53;2.72;;;1.30;;
42036;SDS011;30340;52.004;5.908;2023-08-21T10:58:19;3.78;;;1.30;;
42036;SDS011;30340;52.004;5.908;2023-08-21T11:00:45;3.80;;;1.60;;
42036;SDS011;30340;52.004;5.908;2023-08-21T11:03:10;4.15;;;1.30;;
42036;SDS011;30340;52.004;5.908;2023-08-21T11:05:36;3.00;;;1.30;;
42036;SDS011;30340;52.004;5.908;2023-08-21T11:08:01;4.82;;;1.55;;
42036;SDS011;30340;52.004;5.908;2023-08-21T11:10:29;4.13;;;1.08;;
42036;SDS011;30340;52.004;5.908;2023-08-21T11:12:57;3.03;;;1.20;;
42036;SDS011;30340;52.004;5.908;2023-08-21T11:15:27;2.42;;;1.23;;
42036;SDS011;30340;52.004;5.908;2023-08-21T11:17:57;5.53;;;1.48;;
42036;SDS011;30340;52.004;5.908;2023-08-21T11:20:31;3.30;;;1.30;;
42036;SDS011;30340;52.004;5.908;2023-08-21T11:23:02;4.28;;;1.40;;
42036;SDS011;30340;52.004;5.908;2023-08-21T11:25:31;4.28;;;1.50;;
42036;SDS011;30340;52.004;5.908;2023-08-21T11:28:04;5.00;;;1.48;;
42036;SDS011;30340;52.004;5.908;2023-08-21T11:30:31;4.38;;;1.25;;
42036;SDS011;30340;52.004;5.908;2023-08-21T11:33:04;3.38;;;1.45;;
42036;SDS011;30340;52.004;5.908;2023-08-21T11:35:40;4.22;;;1.38;;
42036;SDS011;30340;52.004;5.908;2023-08-21T11:38:06;2.13;;;1.20;;
42036;SDS011;30340;52.004;5.908;2023-08-21T11:40:42;4.10;;;1.35;;
42036;SDS011;30340;52.004;5.908;2023-08-21T11:43:15;2.70;;;1.48;;
42036;SDS011;30340;52.004;5.908;2023-08-21T11:45:41;4.20;;;1.38;;
42036;SDS011;30340;52.004;5.908;2023-08-21T11:48:06;3.45;;;1.00;;
42036;SDS011;30340;52.004;5.908;2023-08-21T11:50:32;2.13;;;0.93;;
42036;SDS011;30340;52.004;5.908;2023-08-21T11:52:58;3.28;;;1.30;;
42036;SDS011;30340;52.004;5.908;2023-08-21T11:55:23;2.67;;;1.00;;
42036;SDS011;30340;52.004;5.908;2023-08-21T11:57:49;2.25;;;1.10;;
42036;SDS011;30340;52.004;5.908;2023-08-21T12:00:17;2.28;;;1.30;;
42036;SDS011;30340;52.004;5.908;2023-08-21T12:02:54;3.20;;;1.30;;
42036;SDS011;30340;52.004;5.908;2023-08-21T12:05:21;3.67;;;1.30;;
42036;SDS011;30340;52.004;5.908;2023-08-21T12:07:48;2.10;;;1.00;;
42036;SDS011;30340;52.004;5.908;2023-08-21T12:10:13;2.38;;;1.00;;
42036;SDS011;30340;52.004;5.908;2023-08-21T12:12:39;2.50;;;0.90;;
42036;SDS011;30340;52.004;5.908;2023-08-21T12:15:05;1.95;;;1.00;;
42036;SDS011;30340;52.004;5.908;2023-08-21T12:17:31;2.72;;;1.10;;
42036;SDS011;30340;52.004;5.908;2023-08-21T12:19:56;1.45;;;0.80;;
42036;SDS011;30340;52.004;5.908;2023-08-21T12:22:22;1.77;;;0.80;;
42036;SDS011;30340;52.004;5.908;2023-08-21T12:24:47;2.78;;;0.95;;
42036;SDS011;30340;52.004;5.908;2023-08-21T12:27:13;2.65;;;1.02;;
42036;SDS011;30340;52.004;5.908;2023-08-21T12:29:38;2.47;;;1.05;;
42036;SDS011;30340;52.004;5.908;2023-08-21T12:32:04;1.77;;;0.77;;
42036;SDS011;30340;52.004;5.908;2023-08-21T12:34:30;2.42;;;1.00;;
42036;SDS011;30340;52.004;5.908;2023-08-21T12:36:56;2.83;;;1.25;;
42036;SDS011;30340;52.004;5.908;2023-08-21T12:39:21;2.40;;;0.98;;
42036;SDS011;30340;52.004;5.908;2023-08-21T12:41:47;1.98;;;1.00;;
42036;SDS011;30340;52.004;5.908;2023-08-21T12:44:13;3.75;;;1.10;;
42036;SDS011;30340;52.004;5.908;2023-08-21T12:46:39;3.42;;;1.00;;
42036;SDS011;30340;52.004;5.908;2023-08-21T12:49:05;3.60;;;1.45;;
42036;SDS011;30340;52.004;5.908;2023-08-21T12:51:31;2.15;;;1.00;;
42036;SDS011;30340;52.004;5.908;2023-08-21T12:53:57;2.83;;;0.80;;
42036;SDS011;30340;52.004;5.908;2023-08-21T12:56:22;1.98;;;0.70;;
42036;SDS011;30340;52.004;5.908;2023-08-21T12:58:48;2.70;;;0.88;;
42036;SDS011;30340;52.004;5.908;2023-08-21T13:01:14;3.22;;;1.00;;
42036;SDS011;30340;52.004;5.908;2023-08-21T13:03:43;1.80;;;0.82;;
42036;SDS011;30340;52.004;5.908;2023-08-21T13:06:10;3.60;;;1.00;;
42036;SDS011;30340;52.004;5.908;2023-08-21T13:08:36;2.88;;;1.23;;
42036;SDS011;30340;52.004;5.908;2023-08-21T13:11:02;2.75;;;1.08;;
42036;SDS011;30340;52.004;5.908;2023-08-21T13:13:28;2.03;;;0.85;;
42036;SDS011;30340;52.004;5.908;2023-08-21T13:15:53;3.30;;;1.00;;
42036;SDS011;30340;52.004;5.908;2023-08-21T13:18:20;2.40;;;1.10;;
42036;SDS011;30340;52.004;5.908;2023-08-21T13:20:45;1.35;;;0.80;;
42036;SDS011;30340;52.004;5.908;2023-08-21T13:23:11;2.58;;;0.90;;
42036;SDS011;30340;52.004;5.908;2023-08-21T13:25:36;2.65;;;0.93;;
42036;SDS011;30340;52.004;5.908;2023-08-21T13:28:02;2.30;;;0.77;;
42036;SDS011;30340;52.004;5.908;2023-08-21T13:30:29;4.43;;;1.30;;
42036;SDS011;30340;52.004;5.908;2023-08-21T13:32:55;2.58;;;1.00;;
42036;SDS011;30340;52.004;5.908;2023-08-21T13:35:21;3.47;;;1.10;;
42036;SDS011;30340;52.004;5.908;2023-08-21T13:37:47;2.58;;;1.10;;
42036;SDS011;30340;52.004;5.908;2023-08-21T13:40:13;4.50;;;1.13;;
42036;SDS011;30340;52.004;5.908;2023-08-21T13:42:42;2.55;;;1.10;;
42036;SDS011;30340;52.004;5.908;2023-08-21T13:45:12;3.05;;;1.10;;
42036;SDS011;30340;52.004;5.908;2023-08-21T13:47:39;4.13;;;1.15;;
42036;SDS011;30340;52.004;5.908;2023-08-21T13:50:09;3.13;;;0.98;;
42036;SDS011;30340;52.004;5.908;2023-08-21T13:52:36;2.40;;;0.90;;
42036;SDS011;30340;52.004;5.908;2023-08-21T13:55:03;2.30;;;0.70;;
42036;SDS011;30340;52.004;5.908;2023-08-21T13:57:29;1.88;;;0.70;;
42036;SDS011;30340;52.004;5.908;2023-08-21T13:59:56;3.20;;;0.90;;
42036;SDS011;30340;52.004;5.908;2023-08-21T14:02:22;2.53;;;0.70;;
42036;SDS011;30340;52.004;5.908;2023-08-21T14:04:48;1.13;;;0.70;;
42036;SDS011;30340;52.004;5.908;2023-08-21T14:07:15;1.33;;;0.63;;
42036;SDS011;30340;52.004;5.908;2023-08-21T14:09:40;1.38;;;0.65;;
42036;SDS011;30340;52.004;5.908;2023-08-21T14:12:06;1.95;;;0.70;;
42036;SDS011;30340;52.004;5.908;2023-08-21T14:14:32;2.00;;;0.68;;
42036;SDS011;30340;52.004;5.908;2023-08-21T14:16:58;1.13;;;0.55;;
42036;SDS011;30340;52.004;5.908;2023-08-21T14:19:24;2.67;;;0.60;;
42036;SDS011;30340;52.004;5.908;2023-08-21T14:21:49;1.50;;;0.50;;
42036;SDS011;30340;52.004;5.908;2023-08-21T14:24:15;1.65;;;0.55;;
42036;SDS011;30340;52.004;5.908;2023-08-21T14:26:41;1.50;;;0.52;;
42036;SDS011;30340;52.004;5.908;2023-08-21T14:29:07;1.23;;;0.40;;
42036;SDS011;30340;52.004;5.908;2023-08-21T14:31:33;2.92;;;0.50;;
42036;SDS011;30340;52.004;5.908;2023-08-21T14:33:59;2.45;;;0.63;;
42036;SDS011;30340;52.004;5.908;2023-08-21T14:36:24;1.90;;;0.60;;
42036;SDS011;30340;52.004;5.908;2023-08-21T14:38:50;1.30;;;0.60;;
42036;SDS011;30340;52.004;5.908;2023-08-21T14:41:16;0.75;;;0.50;;
42036;SDS011;30340;52.004;5.908;2023-08-21T14:43:42;1.55;;;0.68;;
42036;SDS011;30340;52.004;5.908;2023-08-21T14:46:09;1.95;;;0.60;;
42036;SDS011;30340;52.004;5.908;2023-08-21T14:48:35;2.42;;;0.65;;